sensor_id;sensor_type;location;lat;lon;timestamp;P1;durP1;ratioP1;P2;durP2;ratioP2
9759;SDS011;4919;48.792;9.202;2023-02-28T00:01:58;9.57;;;5.87;;
9759;SDS011;4919;48.792;9.202;2023-02-28T00:04:43;7.30;;;5.33;;
9759;SDS011;4919;48.792;9.202;2023-02-28T00:07:27;7.27;;;4.97;;
9759;SDS011;4919;48.792;9.202;2023-02-28T00:10:14;7.57;;;4.70;;
9759;SDS011;4919;48.792;9.202;2023-02-28T00:13:04;7.13;;;5.00;;
9759;SDS011;4919;48.792;9.202;2023-02-28T00:15:58;7.20;;;4.80;;
9759;SDS011;4919;48.792;9.202;2023-02-28T00:18:47;6.07;;;4.60;;
9759;SDS011;4919;48.792;9.202;2023-02-28T00:21:32;7.03;;;4.87;;
9759;SDS011;4919;48.792;9.202;2023-02-28T00:24:16;7.20;;;4.43;;
9759;SDS011;4919;48.792;9.202;2023-02-28T00:27:01;5.80;;;4.60;;
9759;SDS011;4919;48.792;9.202;2023-02-28T00:29:46;8.33;;;4.77;;
9759;SDS011;4919;48.792;9.202;2023-02-28T00:32:31;9.03;;;5.00;;
9759;SDS011;4919;48.792;9.202;2023-02-28T00:35:16;8.53;;;5.00;;
9759;SDS011;4919;48.792;9.202;2023-02-28T00:38:01;7.30;;;4.63;;
9759;SDS011;4919;48.792;9.202;2023-02-28T00:40:46;5.60;;;4.03;;
9759;SDS011;4919;48.792;9.202;2023-02-28T00:43:35;8.07;;;4.30;;
9759;SDS011;4919;48.792;9.202;2023-02-28T00:46:21;8.03;;;4.40;;
9759;SDS011;4919;48.792;9.202;2023-02-28T00:49:06;5.90;;;4.40;;
9759;SDS011;4919;48.792;9.202;2023-02-28T00:51:51;5.57;;;4.13;;
9759;SDS011;4919;48.792;9.202;2023-02-28T00:54:37;6.50;;;4.50;;
9759;SDS011;4919;48.792;9.202;2023-02-28T00:57:22;7.47;;;4.10;;
9759;SDS011;4919;48.792;9.202;2023-02-28T01:00:08;6.40;;;4.13;;
9759;SDS011;4919;48.792;9.202;2023-02-28T01:02:52;6.27;;;4.33;;
9759;SDS011;4919;48.792;9.202;2023-02-28T01:05:37;5.90;;;4.00;;
9759;SDS011;4919;48.792;9.202;2023-02-28T01:08:22;8.47;;;4.50;;
9759;SDS011;4919;48.792;9.202;2023-02-28T01:11:08;6.20;;;4.17;;
9759;SDS011;4919;48.792;9.202;2023-02-28T01:13:54;7.30;;;4.87;;
9759;SDS011;4919;48.792;9.202;2023-02-28T01:16:39;6.03;;;4.53;;
9759;SDS011;4919;48.792;9.202;2023-02-28T01:19:24;5.93;;;4.20;;
9759;SDS011;4919;48.792;9.202;2023-02-28T01:22:09;6.33;;;4.43;;
9759;SDS011;4919;48.792;9.202;2023-02-28T01:24:54;7.50;;;4.80;;
9759;SDS011;4919;48.792;9.202;2023-02-28T01:27:38;7.77;;;4.80;;
9759;SDS011;4919;48.792;9.202;2023-02-28T01:30:23;7.53;;;4.40;;
9759;SDS011;4919;48.792;9.202;2023-02-28T01:33:08;8.47;;;4.60;;
9759;SDS011;4919;48.792;9.202;2023-02-28T01:36:06;6.20;;;4.40;;
9759;SDS011;4919;48.792;9.202;2023-02-28T01:38:57;8.07;;;4.90;;
9759;SDS011;4919;48.792;9.202;2023-02-28T01:41:42;8.03;;;4.40;;
9759;SDS011;4919;48.792;9.202;2023-02-28T01:47:42;7.07;;;4.80;;
9759;SDS011;4919;48.792;9.202;2023-02-28T01:50:28;5.60;;;4.40;;
9759;SDS011;4919;48.792;9.202;2023-02-28T01:53:19;6.10;;;4.30;;
9759;SDS011;4919;48.792;9.202;2023-02-28T01:56:09;8.37;;;4.83;;
9759;SDS011;4919;48.792;9.202;2023-02-28T01:58:56;6.73;;;5.03;;
9759;SDS011;4919;48.792;9.202;2023-02-28T02:01:41;8.83;;;4.63;;
9759;SDS011;4919;48.792;9.202;2023-02-28T02:04:27;6.03;;;4.17;;
9759;SDS011;4919;48.792;9.202;2023-02-28T02:07:16;8.50;;;5.00;;
9759;SDS011;4919;48.792;9.202;2023-02-28T02:10:47;6.87;;;4.60;;
9759;SDS011;4919;48.792;9.202;2023-02-28T02:25:19;5.93;;;4.10;;
9759;SDS011;4919;48.792;9.202;2023-02-28T02:34:26;7.53;;;4.77;;
9759;SDS011;4919;48.792;9.202;2023-02-28T02:37:33;7.33;;;4.63;;
9759;SDS011;4919;48.792;9.202;2023-02-28T02:40:40;7.20;;;4.67;;
9759;SDS011;4919;48.792;9.202;2023-02-28T02:43:41;5.50;;;4.37;;
9759;SDS011;4919;48.792;9.202;2023-02-28T02:46:33;8.93;;;5.10;;
9759;SDS011;4919;48.792;9.202;2023-02-28T02:49:22;7.13;;;4.93;;
9759;SDS011;4919;48.792;9.202;2023-02-28T02:52:11;7.57;;;4.83;;
9759;SDS011;4919;48.792;9.202;2023-02-28T02:54:58;6.93;;;4.70;;
9759;SDS011;4919;48.792;9.202;2023-02-28T02:57:48;6.40;;;4.60;;
9759;SDS011;4919;48.792;9.202;2023-02-28T03:00:48;8.53;;;4.93;;
9759;SDS011;4919;48.792;9.202;2023-02-28T03:03:36;5.57;;;4.33;;
9759;SDS011;4919;48.792;9.202;2023-02-28T03:06:21;8.13;;;4.70;;
9759;SDS011;4919;48.792;9.202;2023-02-28T03:09:06;7.70;;;4.43;;
9759;SDS011;4919;48.792;9.202;2023-02-28T03:11:52;9.53;;;4.53;;
9759;SDS011;4919;48.792;9.202;2023-02-28T03:24:23;7.23;;;4.70;;
9759;SDS011;4919;48.792;9.202;2023-02-28T03:26:56;7.57;;;5.20;;
9759;SDS011;4919;48.792;9.202;2023-02-28T03:29:50;8.13;;;5.07;;
9759;SDS011;4919;48.792;9.202;2023-02-28T03:33:29;5.70;;;4.63;;
9759;SDS011;4919;48.792;9.202;2023-02-28T03:35:52;7.43;;;4.73;;
9759;SDS011;4919;48.792;9.202;2023-02-28T03:38:51;7.33;;;4.67;;
9759;SDS011;4919;48.792;9.202;2023-02-28T03:44:52;7.53;;;5.00;;
9759;SDS011;4919;48.792;9.202;2023-02-28T03:47:54;7.53;;;4.90;;
9759;SDS011;4919;48.792;9.202;2023-02-28T03:50:51;8.17;;;5.47;;
9759;SDS011;4919;48.792;9.202;2023-02-28T03:53:42;8.47;;;5.50;;
9759;SDS011;4919;48.792;9.202;2023-02-28T03:56:45;8.60;;;5.10;;
9759;SDS011;4919;48.792;9.202;2023-02-28T03:59:43;11.20;;;5.97;;
9759;SDS011;4919;48.792;9.202;2023-02-28T04:02:32;10.60;;;5.87;;
9759;SDS011;4919;48.792;9.202;2023-02-28T04:05:18;10.63;;;5.77;;
9759;SDS011;4919;48.792;9.202;2023-02-28T04:08:05;9.87;;;6.37;;
9759;SDS011;4919;48.792;9.202;2023-02-28T04:10:56;10.77;;;6.37;;
9759;SDS011;4919;48.792;9.202;2023-02-28T04:13:51;9.53;;;5.93;;
9759;SDS011;4919;48.792;9.202;2023-02-28T04:16:36;8.20;;;5.70;;
9759;SDS011;4919;48.792;9.202;2023-02-28T04:19:23;10.70;;;6.57;;
9759;SDS011;4919;48.792;9.202;2023-02-28T04:22:08;9.43;;;5.60;;
9759;SDS011;4919;48.792;9.202;2023-02-28T04:24:53;9.10;;;5.30;;
9759;SDS011;4919;48.792;9.202;2023-02-28T04:27:38;10.30;;;5.40;;
9759;SDS011;4919;48.792;9.202;2023-02-28T04:30:23;8.33;;;4.60;;
9759;SDS011;4919;48.792;9.202;2023-02-28T04:33:08;7.40;;;4.90;;
9759;SDS011;4919;48.792;9.202;2023-02-28T04:36:03;7.03;;;4.63;;
9759;SDS011;4919;48.792;9.202;2023-02-28T04:38:49;7.97;;;4.73;;
9759;SDS011;4919;48.792;9.202;2023-02-28T04:41:33;6.60;;;4.97;;
9759;SDS011;4919;48.792;9.202;2023-02-28T04:44:18;7.00;;;5.07;;
9759;SDS011;4919;48.792;9.202;2023-02-28T04:47:03;7.27;;;5.13;;
9759;SDS011;4919;48.792;9.202;2023-02-28T04:49:48;9.00;;;5.60;;
9759;SDS011;4919;48.792;9.202;2023-02-28T04:52:33;8.83;;;5.10;;
9759;SDS011;4919;48.792;9.202;2023-02-28T04:55:18;8.87;;;5.63;;
9759;SDS011;4919;48.792;9.202;2023-02-28T04:58:02;8.47;;;5.30;;
9759;SDS011;4919;48.792;9.202;2023-02-28T05:00:47;6.10;;;4.73;;
9759;SDS011;4919;48.792;9.202;2023-02-28T05:03:32;6.63;;;4.90;;
9759;SDS011;4919;48.792;9.202;2023-02-28T05:06:17;10.80;;;5.20;;
9759;SDS011;4919;48.792;9.202;2023-02-28T05:09:03;8.03;;;4.70;;
9759;SDS011;4919;48.792;9.202;2023-02-28T05:11:47;8.20;;;5.37;;
9759;SDS011;4919;48.792;9.202;2023-02-28T05:14:32;8.37;;;5.10;;
9759;SDS011;4919;48.792;9.202;2023-02-28T05:17:17;8.90;;;5.87;;
9759;SDS011;4919;48.792;9.202;2023-02-28T05:20:02;9.10;;;5.47;;
9759;SDS011;4919;48.792;9.202;2023-02-28T05:22:47;10.00;;;5.53;;
9759;SDS011;4919;48.792;9.202;2023-02-28T05:25:33;10.70;;;6.03;;
9759;SDS011;4919;48.792;9.202;2023-02-28T05:28:18;11.50;;;6.40;;
9759;SDS011;4919;48.792;9.202;2023-02-28T05:31:03;13.20;;;7.53;;
9759;SDS011;4919;48.792;9.202;2023-02-28T05:33:48;15.03;;;7.23;;
9759;SDS011;4919;48.792;9.202;2023-02-28T05:36:33;9.87;;;6.23;;
9759;SDS011;4919;48.792;9.202;2023-02-28T05:39:18;11.07;;;6.57;;
9759;SDS011;4919;48.792;9.202;2023-02-28T05:42:03;10.43;;;6.10;;
9759;SDS011;4919;48.792;9.202;2023-02-28T05:44:47;12.57;;;6.80;;
9759;SDS011;4919;48.792;9.202;2023-02-28T05:47:32;11.47;;;6.80;;
9759;SDS011;4919;48.792;9.202;2023-02-28T05:50:17;11.37;;;7.37;;
9759;SDS011;4919;48.792;9.202;2023-02-28T05:53:02;13.83;;;8.43;;
9759;SDS011;4919;48.792;9.202;2023-02-28T05:55:47;13.00;;;7.70;;
9759;SDS011;4919;48.792;9.202;2023-02-28T05:58:32;20.13;;;10.43;;
9759;SDS011;4919;48.792;9.202;2023-02-28T06:04:20;19.73;;;10.10;;
9759;SDS011;4919;48.792;9.202;2023-02-28T06:07:05;18.83;;;9.83;;
9759;SDS011;4919;48.792;9.202;2023-02-28T06:09:50;20.57;;;10.90;;
9759;SDS011;4919;48.792;9.202;2023-02-28T06:12:35;20.43;;;10.27;;
9759;SDS011;4919;48.792;9.202;2023-02-28T06:15:20;17.80;;;9.47;;
9759;SDS011;4919;48.792;9.202;2023-02-28T06:18:05;15.07;;;8.50;;
9759;SDS011;4919;48.792;9.202;2023-02-28T06:20:53;16.60;;;8.03;;
9759;SDS011;4919;48.792;9.202;2023-02-28T06:23:38;12.87;;;8.10;;
9759;SDS011;4919;48.792;9.202;2023-02-28T06:26:23;12.97;;;7.70;;
9759;SDS011;4919;48.792;9.202;2023-02-28T06:29:08;14.60;;;8.13;;
9759;SDS011;4919;48.792;9.202;2023-02-28T06:31:53;12.60;;;7.67;;
9759;SDS011;4919;48.792;9.202;2023-02-28T06:34:38;10.27;;;6.80;;
9759;SDS011;4919;48.792;9.202;2023-02-28T06:37:23;13.93;;;7.60;;
9759;SDS011;4919;48.792;9.202;2023-02-28T06:40:08;10.13;;;6.57;;
9759;SDS011;4919;48.792;9.202;2023-02-28T06:42:55;10.63;;;6.87;;
9759;SDS011;4919;48.792;9.202;2023-02-28T06:45:43;10.93;;;6.63;;
9759;SDS011;4919;48.792;9.202;2023-02-28T06:48:27;8.97;;;5.90;;
9759;SDS011;4919;48.792;9.202;2023-02-28T06:51:14;10.73;;;6.70;;
9759;SDS011;4919;48.792;9.202;2023-02-28T06:54:03;10.57;;;6.40;;
9759;SDS011;4919;48.792;9.202;2023-02-28T06:56:48;11.40;;;6.57;;
9759;SDS011;4919;48.792;9.202;2023-02-28T06:59:34;8.27;;;6.13;;
9759;SDS011;4919;48.792;9.202;2023-02-28T07:02:18;9.40;;;5.80;;
9759;SDS011;4919;48.792;9.202;2023-02-28T07:05:04;9.80;;;5.97;;
9759;SDS011;4919;48.792;9.202;2023-02-28T07:07:50;9.97;;;6.20;;
9759;SDS011;4919;48.792;9.202;2023-02-28T07:10:36;9.07;;;6.03;;
9759;SDS011;4919;48.792;9.202;2023-02-28T07:13:22;10.90;;;6.60;;
9759;SDS011;4919;48.792;9.202;2023-02-28T07:16:07;11.00;;;6.77;;
9759;SDS011;4919;48.792;9.202;2023-02-28T07:18:54;10.53;;;6.90;;
9759;SDS011;4919;48.792;9.202;2023-02-28T07:21:40;14.17;;;6.87;;
9759;SDS011;4919;48.792;9.202;2023-02-28T07:24:24;10.77;;;6.13;;
9759;SDS011;4919;48.792;9.202;2023-02-28T07:27:09;12.63;;;7.17;;
9759;SDS011;4919;48.792;9.202;2023-02-28T07:29:54;11.97;;;7.17;;
9759;SDS011;4919;48.792;9.202;2023-02-28T07:32:39;12.27;;;7.57;;
9759;SDS011;4919;48.792;9.202;2023-02-28T07:35:24;12.27;;;7.90;;
9759;SDS011;4919;48.792;9.202;2023-02-28T07:38:09;9.50;;;6.67;;
9759;SDS011;4919;48.792;9.202;2023-02-28T07:40:54;10.93;;;6.77;;
9759;SDS011;4919;48.792;9.202;2023-02-28T07:43:38;12.20;;;7.03;;
9759;SDS011;4919;48.792;9.202;2023-02-28T07:46:23;10.43;;;6.90;;
9759;SDS011;4919;48.792;9.202;2023-02-28T07:49:08;11.27;;;7.63;;
9759;SDS011;4919;48.792;9.202;2023-02-28T07:51:53;9.57;;;6.33;;
9759;SDS011;4919;48.792;9.202;2023-02-28T07:54:39;14.83;;;6.73;;
9759;SDS011;4919;48.792;9.202;2023-02-28T07:57:24;9.37;;;5.90;;
9759;SDS011;4919;48.792;9.202;2023-02-28T08:00:09;10.57;;;6.10;;
9759;SDS011;4919;48.792;9.202;2023-02-28T08:02:55;8.40;;;6.03;;
9759;SDS011;4919;48.792;9.202;2023-02-28T08:05:40;8.77;;;5.93;;
9759;SDS011;4919;48.792;9.202;2023-02-28T08:08:25;9.57;;;6.37;;
9759;SDS011;4919;48.792;9.202;2023-02-28T08:11:10;8.47;;;5.83;;
9759;SDS011;4919;48.792;9.202;2023-02-28T08:13:55;11.40;;;5.97;;
9759;SDS011;4919;48.792;9.202;2023-02-28T08:16:40;11.37;;;6.37;;
9759;SDS011;4919;48.792;9.202;2023-02-28T08:19:25;9.77;;;6.20;;
9759;SDS011;4919;48.792;9.202;2023-02-28T08:22:09;8.77;;;5.60;;
9759;SDS011;4919;48.792;9.202;2023-02-28T08:24:54;7.23;;;4.97;;
9759;SDS011;4919;48.792;9.202;2023-02-28T08:27:39;6.53;;;4.77;;
9759;SDS011;4919;48.792;9.202;2023-02-28T08:30:24;7.70;;;4.30;;
9759;SDS011;4919;48.792;9.202;2023-02-28T08:33:09;6.37;;;4.30;;
9759;SDS011;4919;48.792;9.202;2023-02-28T08:35:57;7.13;;;4.60;;
9759;SDS011;4919;48.792;9.202;2023-02-28T08:38:42;6.50;;;4.50;;
9759;SDS011;4919;48.792;9.202;2023-02-28T08:41:26;8.70;;;4.80;;
9759;SDS011;4919;48.792;9.202;2023-02-28T08:44:11;5.90;;;4.13;;
9759;SDS011;4919;48.792;9.202;2023-02-28T08:46:56;7.50;;;4.70;;
9759;SDS011;4919;48.792;9.202;2023-02-28T08:49:41;7.30;;;4.37;;
9759;SDS011;4919;48.792;9.202;2023-02-28T08:52:26;5.63;;;3.93;;
9759;SDS011;4919;48.792;9.202;2023-02-28T08:55:11;5.53;;;3.83;;
9759;SDS011;4919;48.792;9.202;2023-02-28T08:57:56;5.97;;;3.43;;
9759;SDS011;4919;48.792;9.202;2023-02-28T09:00:40;6.63;;;4.40;;
9759;SDS011;4919;48.792;9.202;2023-02-28T09:03:26;7.67;;;4.30;;
9759;SDS011;4919;48.792;9.202;2023-02-28T09:06:10;8.97;;;4.47;;
9759;SDS011;4919;48.792;9.202;2023-02-28T09:08:56;7.27;;;4.70;;
9759;SDS011;4919;48.792;9.202;2023-02-28T09:11:41;5.67;;;4.17;;
9759;SDS011;4919;48.792;9.202;2023-02-28T09:14:26;6.33;;;4.63;;
9759;SDS011;4919;48.792;9.202;2023-02-28T09:17:11;9.03;;;6.57;;
9759;SDS011;4919;48.792;9.202;2023-02-28T09:19:56;8.03;;;4.93;;
9759;SDS011;4919;48.792;9.202;2023-02-28T09:22:41;7.00;;;4.13;;
9759;SDS011;4919;48.792;9.202;2023-02-28T09:25:26;7.33;;;3.73;;
9759;SDS011;4919;48.792;9.202;2023-02-28T09:28:11;8.47;;;4.40;;
9759;SDS011;4919;48.792;9.202;2023-02-28T09:30:56;5.43;;;3.67;;
9759;SDS011;4919;48.792;9.202;2023-02-28T09:33:41;6.17;;;4.03;;
9759;SDS011;4919;48.792;9.202;2023-02-28T09:36:26;6.63;;;4.70;;
9759;SDS011;4919;48.792;9.202;2023-02-28T09:39:11;5.00;;;3.20;;
9759;SDS011;4919;48.792;9.202;2023-02-28T09:41:56;6.60;;;4.10;;
9759;SDS011;4919;48.792;9.202;2023-02-28T09:44:42;5.30;;;3.30;;
9759;SDS011;4919;48.792;9.202;2023-02-28T09:47:31;4.57;;;3.20;;
9759;SDS011;4919;48.792;9.202;2023-02-28T09:53:18;2.77;;;2.03;;
9759;SDS011;4919;48.792;9.202;2023-02-28T09:56:11;3.20;;;2.30;;
9759;SDS011;4919;48.792;9.202;2023-02-28T10:01:56;3.97;;;2.47;;
9759;SDS011;4919;48.792;9.202;2023-02-28T10:11:02;5.43;;;2.30;;
9759;SDS011;4919;48.792;9.202;2023-02-28T10:16:46;2.37;;;2.00;;
9759;SDS011;4919;48.792;9.202;2023-02-28T10:19:35;2.57;;;1.93;;
9759;SDS011;4919;48.792;9.202;2023-02-28T10:26:00;2.30;;;1.90;;
9759;SDS011;4919;48.792;9.202;2023-02-28T10:29:07;2.10;;;1.90;;
9759;SDS011;4919;48.792;9.202;2023-02-28T10:31:52;4.47;;;2.13;;
9759;SDS011;4919;48.792;9.202;2023-02-28T10:34:37;3.00;;;2.00;;
9759;SDS011;4919;48.792;9.202;2023-02-28T10:37:22;3.10;;;2.00;;
9759;SDS011;4919;48.792;9.202;2023-02-28T10:40:25;2.83;;;1.80;;
9759;SDS011;4919;48.792;9.202;2023-02-28T10:43:19;2.70;;;1.83;;
9759;SDS011;4919;48.792;9.202;2023-02-28T10:49:05;3.50;;;1.83;;
9759;SDS011;4919;48.792;9.202;2023-02-28T10:51:57;2.80;;;2.23;;
9759;SDS011;4919;48.792;9.202;2023-02-28T10:54:43;2.90;;;2.20;;
9759;SDS011;4919;48.792;9.202;2023-02-28T10:57:28;3.00;;;2.00;;
9759;SDS011;4919;48.792;9.202;2023-02-28T11:00:19;3.03;;;2.13;;
9759;SDS011;4919;48.792;9.202;2023-02-28T11:03:06;3.20;;;2.10;;
9759;SDS011;4919;48.792;9.202;2023-02-28T11:06:15;3.50;;;2.10;;
9759;SDS011;4919;48.792;9.202;2023-02-28T11:09:06;3.30;;;2.10;;
9759;SDS011;4919;48.792;9.202;2023-02-28T11:12:17;4.63;;;3.13;;
9759;SDS011;4919;48.792;9.202;2023-02-28T11:18:21;2.87;;;2.10;;
9759;SDS011;4919;48.792;9.202;2023-02-28T11:21:15;3.00;;;2.30;;
9759;SDS011;4919;48.792;9.202;2023-02-28T11:27:05;3.47;;;2.17;;
9759;SDS011;4919;48.792;9.202;2023-02-28T11:29:50;3.60;;;2.20;;
9759;SDS011;4919;48.792;9.202;2023-02-28T11:32:35;3.33;;;2.20;;
9759;SDS011;4919;48.792;9.202;2023-02-28T11:35:24;3.97;;;2.30;;
9759;SDS011;4919;48.792;9.202;2023-02-28T11:38:14;3.47;;;2.20;;
9759;SDS011;4919;48.792;9.202;2023-02-28T11:41:10;3.80;;;2.10;;
9759;SDS011;4919;48.792;9.202;2023-02-28T11:47:52;3.97;;;2.27;;
9759;SDS011;4919;48.792;9.202;2023-02-28T11:56:47;3.30;;;2.40;;
9759;SDS011;4919;48.792;9.202;2023-02-28T12:05:43;3.77;;;2.27;;
9759;SDS011;4919;48.792;9.202;2023-02-28T12:14:54;4.80;;;2.50;;
9759;SDS011;4919;48.792;9.202;2023-02-28T12:18:08;3.67;;;2.37;;
9759;SDS011;4919;48.792;9.202;2023-02-28T12:21:14;5.37;;;2.70;;
9759;SDS011;4919;48.792;9.202;2023-02-28T12:24:26;3.33;;;2.40;;
9759;SDS011;4919;48.792;9.202;2023-02-28T12:27:24;5.67;;;2.53;;
9759;SDS011;4919;48.792;9.202;2023-02-28T12:30:16;3.60;;;2.50;;
9759;SDS011;4919;48.792;9.202;2023-02-28T12:33:14;4.43;;;2.57;;
9759;SDS011;4919;48.792;9.202;2023-02-28T12:36:04;4.30;;;2.50;;
9759;SDS011;4919;48.792;9.202;2023-02-28T12:38:54;3.93;;;2.83;;
9759;SDS011;4919;48.792;9.202;2023-02-28T12:41:49;3.70;;;2.43;;
9759;SDS011;4919;48.792;9.202;2023-02-28T12:44:49;3.60;;;2.53;;
9759;SDS011;4919;48.792;9.202;2023-02-28T12:47:36;6.83;;;3.00;;
9759;SDS011;4919;48.792;9.202;2023-02-28T12:50:24;4.30;;;2.60;;
9759;SDS011;4919;48.792;9.202;2023-02-28T12:53:13;4.57;;;2.57;;
9759;SDS011;4919;48.792;9.202;2023-02-28T12:56:17;4.40;;;2.70;;
9759;SDS011;4919;48.792;9.202;2023-02-28T12:59:30;4.13;;;2.50;;
9759;SDS011;4919;48.792;9.202;2023-02-28T13:11:49;4.70;;;2.80;;
9759;SDS011;4919;48.792;9.202;2023-02-28T13:14:36;5.00;;;3.10;;
9759;SDS011;4919;48.792;9.202;2023-02-28T13:17:23;4.80;;;2.93;;
9759;SDS011;4919;48.792;9.202;2023-02-28T13:29:27;6.40;;;3.60;;
9759;SDS011;4919;48.792;9.202;2023-02-28T13:32:33;4.77;;;3.30;;
9759;SDS011;4919;48.792;9.202;2023-02-28T13:35:34;6.40;;;3.50;;
9759;SDS011;4919;48.792;9.202;2023-02-28T13:38:25;5.47;;;3.10;;
9759;SDS011;4919;48.792;9.202;2023-02-28T13:44:18;12.47;;;7.43;;
9759;SDS011;4919;48.792;9.202;2023-02-28T13:49:50;3.97;;;2.90;;
9759;SDS011;4919;48.792;9.202;2023-02-28T13:52:35;4.23;;;2.90;;
9759;SDS011;4919;48.792;9.202;2023-02-28T13:55:37;3.73;;;2.60;;
9759;SDS011;4919;48.792;9.202;2023-02-28T13:58:52;4.63;;;3.10;;
9759;SDS011;4919;48.792;9.202;2023-02-28T14:02:02;4.30;;;2.97;;
9759;SDS011;4919;48.792;9.202;2023-02-28T14:08:17;3.97;;;2.70;;
9759;SDS011;4919;48.792;9.202;2023-02-28T14:11:08;4.43;;;2.73;;
9759;SDS011;4919;48.792;9.202;2023-02-28T14:14:08;5.40;;;2.60;;
9759;SDS011;4919;48.792;9.202;2023-02-28T14:17:14;4.87;;;2.87;;
9759;SDS011;4919;48.792;9.202;2023-02-28T14:20:01;6.87;;;2.90;;
9759;SDS011;4919;48.792;9.202;2023-02-28T14:22:52;4.67;;;2.90;;
9759;SDS011;4919;48.792;9.202;2023-02-28T14:25:53;5.07;;;2.90;;
9759;SDS011;4919;48.792;9.202;2023-02-28T14:32:01;3.00;;;2.30;;
9759;SDS011;4919;48.792;9.202;2023-02-28T14:38:23;38.67;;;17.20;;
9759;SDS011;4919;48.792;9.202;2023-02-28T14:41:30;6.57;;;4.30;;
9759;SDS011;4919;48.792;9.202;2023-02-28T14:44:21;6.20;;;4.80;;
9759;SDS011;4919;48.792;9.202;2023-02-28T14:47:11;4.27;;;2.97;;
9759;SDS011;4919;48.792;9.202;2023-02-28T14:49:59;4.60;;;3.10;;
9759;SDS011;4919;48.792;9.202;2023-02-28T14:52:46;5.60;;;2.53;;
9759;SDS011;4919;48.792;9.202;2023-02-28T14:55:36;4.73;;;3.20;;
9759;SDS011;4919;48.792;9.202;2023-02-28T14:58:23;7.87;;;2.90;;
9759;SDS011;4919;48.792;9.202;2023-02-28T15:01:09;4.47;;;2.80;;
9759;SDS011;4919;48.792;9.202;2023-02-28T15:04:02;5.43;;;2.90;;
9759;SDS011;4919;48.792;9.202;2023-02-28T15:10:25;5.80;;;3.30;;
9759;SDS011;4919;48.792;9.202;2023-02-28T15:13:12;5.67;;;3.03;;
9759;SDS011;4919;48.792;9.202;2023-02-28T15:16:00;4.20;;;2.97;;
9759;SDS011;4919;48.792;9.202;2023-02-28T15:18:48;4.67;;;2.80;;
9759;SDS011;4919;48.792;9.202;2023-02-28T15:21:41;5.03;;;3.30;;
9759;SDS011;4919;48.792;9.202;2023-02-28T15:27:27;5.60;;;3.40;;
9759;SDS011;4919;48.792;9.202;2023-02-28T15:30:15;6.07;;;3.43;;
9759;SDS011;4919;48.792;9.202;2023-02-28T15:36:14;6.53;;;3.30;;
9759;SDS011;4919;48.792;9.202;2023-02-28T15:39:02;8.57;;;3.40;;
9759;SDS011;4919;48.792;9.202;2023-02-28T15:42:12;5.47;;;3.47;;
9759;SDS011;4919;48.792;9.202;2023-02-28T15:45:02;5.23;;;3.30;;
9759;SDS011;4919;48.792;9.202;2023-02-28T15:47:47;5.63;;;3.23;;
9759;SDS011;4919;48.792;9.202;2023-02-28T15:50:32;5.57;;;3.30;;
9759;SDS011;4919;48.792;9.202;2023-02-28T15:53:18;5.33;;;3.20;;
9759;SDS011;4919;48.792;9.202;2023-02-28T15:56:18;5.30;;;3.17;;
9759;SDS011;4919;48.792;9.202;2023-02-28T15:59:12;5.33;;;2.83;;
9759;SDS011;4919;48.792;9.202;2023-02-28T16:02:18;5.90;;;3.40;;
9759;SDS011;4919;48.792;9.202;2023-02-28T16:07:53;4.57;;;3.00;;
9759;SDS011;4919;48.792;9.202;2023-02-28T16:10:39;5.63;;;3.20;;
9759;SDS011;4919;48.792;9.202;2023-02-28T16:13:24;5.57;;;3.33;;
9759;SDS011;4919;48.792;9.202;2023-02-28T16:16:14;6.30;;;3.43;;
9759;SDS011;4919;48.792;9.202;2023-02-28T16:19:03;6.20;;;3.27;;
9759;SDS011;4919;48.792;9.202;2023-02-28T16:21:48;4.27;;;3.00;;
9759;SDS011;4919;48.792;9.202;2023-02-28T16:24:33;6.10;;;3.00;;
9759;SDS011;4919;48.792;9.202;2023-02-28T16:27:20;6.93;;;3.10;;
9759;SDS011;4919;48.792;9.202;2023-02-28T16:30:17;4.07;;;2.97;;
9759;SDS011;4919;48.792;9.202;2023-02-28T16:33:07;4.70;;;3.00;;
9759;SDS011;4919;48.792;9.202;2023-02-28T16:35:53;6.23;;;3.37;;
9759;SDS011;4919;48.792;9.202;2023-02-28T16:38:37;5.13;;;2.90;;
9759;SDS011;4919;48.792;9.202;2023-02-28T16:41:24;3.73;;;3.07;;
9759;SDS011;4919;48.792;9.202;2023-02-28T16:44:13;6.07;;;3.30;;
9759;SDS011;4919;48.792;9.202;2023-02-28T16:47:05;7.10;;;3.00;;
9759;SDS011;4919;48.792;9.202;2023-02-28T16:49:50;5.63;;;3.30;;
9759;SDS011;4919;48.792;9.202;2023-02-28T16:52:34;8.73;;;3.40;;
9759;SDS011;4919;48.792;9.202;2023-02-28T16:55:19;7.13;;;3.30;;
9759;SDS011;4919;48.792;9.202;2023-02-28T16:58:05;6.20;;;3.07;;
9759;SDS011;4919;48.792;9.202;2023-02-28T17:00:50;5.80;;;3.20;;
9759;SDS011;4919;48.792;9.202;2023-02-28T17:03:35;4.43;;;3.17;;
9759;SDS011;4919;48.792;9.202;2023-02-28T17:06:21;6.80;;;3.20;;
9759;SDS011;4919;48.792;9.202;2023-02-28T17:09:08;7.87;;;3.33;;
9759;SDS011;4919;48.792;9.202;2023-02-28T17:12:00;5.60;;;3.03;;
9759;SDS011;4919;48.792;9.202;2023-02-28T17:14:45;5.17;;;3.00;;
9759;SDS011;4919;48.792;9.202;2023-02-28T17:17:30;5.90;;;2.97;;
9759;SDS011;4919;48.792;9.202;2023-02-28T17:20:17;7.00;;;3.30;;
9759;SDS011;4919;48.792;9.202;2023-02-28T17:23:03;4.43;;;2.90;;
9759;SDS011;4919;48.792;9.202;2023-02-28T17:25:49;6.63;;;3.03;;
9759;SDS011;4919;48.792;9.202;2023-02-28T17:28:33;4.13;;;3.10;;
9759;SDS011;4919;48.792;9.202;2023-02-28T17:31:18;4.13;;;2.93;;
9759;SDS011;4919;48.792;9.202;2023-02-28T17:34:03;6.70;;;3.20;;
9759;SDS011;4919;48.792;9.202;2023-02-28T17:36:49;5.93;;;3.20;;
9759;SDS011;4919;48.792;9.202;2023-02-28T17:39:35;5.50;;;3.20;;
9759;SDS011;4919;48.792;9.202;2023-02-28T17:42:20;5.77;;;3.33;;
9759;SDS011;4919;48.792;9.202;2023-02-28T17:45:05;5.10;;;3.40;;
9759;SDS011;4919;48.792;9.202;2023-02-28T17:47:50;4.93;;;3.23;;
9759;SDS011;4919;48.792;9.202;2023-02-28T17:50:35;9.27;;;3.97;;
9759;SDS011;4919;48.792;9.202;2023-02-28T17:53:20;6.10;;;3.57;;
9759;SDS011;4919;48.792;9.202;2023-02-28T17:56:05;6.53;;;3.70;;
9759;SDS011;4919;48.792;9.202;2023-02-28T17:58:51;7.87;;;3.57;;
9759;SDS011;4919;48.792;9.202;2023-02-28T18:01:37;6.97;;;3.63;;
9759;SDS011;4919;48.792;9.202;2023-02-28T18:04:22;6.47;;;3.63;;
9759;SDS011;4919;48.792;9.202;2023-02-28T18:07:08;9.73;;;3.70;;
9759;SDS011;4919;48.792;9.202;2023-02-28T18:09:55;5.73;;;3.57;;
9759;SDS011;4919;48.792;9.202;2023-02-28T18:12:39;7.20;;;3.60;;
9759;SDS011;4919;48.792;9.202;2023-02-28T18:15:24;8.57;;;3.50;;
9759;SDS011;4919;48.792;9.202;2023-02-28T18:18:09;6.10;;;3.60;;
9759;SDS011;4919;48.792;9.202;2023-02-28T18:20:54;8.83;;;4.17;;
9759;SDS011;4919;48.792;9.202;2023-02-28T18:23:39;8.70;;;3.83;;
9759;SDS011;4919;48.792;9.202;2023-02-28T18:26:24;7.20;;;3.97;;
9759;SDS011;4919;48.792;9.202;2023-02-28T18:29:14;6.97;;;3.87;;
9759;SDS011;4919;48.792;9.202;2023-02-28T18:32:01;10.77;;;3.90;;
9759;SDS011;4919;48.792;9.202;2023-02-28T18:34:46;7.07;;;4.30;;
9759;SDS011;4919;48.792;9.202;2023-02-28T18:37:31;7.37;;;4.47;;
9759;SDS011;4919;48.792;9.202;2023-02-28T18:40:16;6.93;;;4.20;;
9759;SDS011;4919;48.792;9.202;2023-02-28T18:43:01;6.17;;;4.13;;
9759;SDS011;4919;48.792;9.202;2023-02-28T18:45:46;6.63;;;4.10;;
9759;SDS011;4919;48.792;9.202;2023-02-28T18:48:31;7.17;;;4.53;;
9759;SDS011;4919;48.792;9.202;2023-02-28T18:51:17;7.93;;;5.50;;
9759;SDS011;4919;48.792;9.202;2023-02-28T18:54:04;8.87;;;5.43;;
9759;SDS011;4919;48.792;9.202;2023-02-28T18:56:49;9.17;;;5.47;;
9759;SDS011;4919;48.792;9.202;2023-02-28T18:59:33;9.13;;;5.80;;
9759;SDS011;4919;48.792;9.202;2023-02-28T19:02:18;14.00;;;6.03;;
9759;SDS011;4919;48.792;9.202;2023-02-28T19:05:03;9.87;;;5.67;;
9759;SDS011;4919;48.792;9.202;2023-02-28T19:07:48;12.17;;;6.23;;
9759;SDS011;4919;48.792;9.202;2023-02-28T19:10:33;12.43;;;5.97;;
9759;SDS011;4919;48.792;9.202;2023-02-28T19:13:18;10.17;;;6.10;;
9759;SDS011;4919;48.792;9.202;2023-02-28T19:16:03;13.90;;;6.73;;
9759;SDS011;4919;48.792;9.202;2023-02-28T19:18:50;11.50;;;7.07;;
9759;SDS011;4919;48.792;9.202;2023-02-28T19:21:35;10.40;;;7.20;;
9759;SDS011;4919;48.792;9.202;2023-02-28T19:24:19;10.97;;;7.13;;
9759;SDS011;4919;48.792;9.202;2023-02-28T19:27:04;13.00;;;7.17;;
9759;SDS011;4919;48.792;9.202;2023-02-28T19:29:49;11.43;;;6.80;;
9759;SDS011;4919;48.792;9.202;2023-02-28T19:32:35;17.90;;;7.30;;
9759;SDS011;4919;48.792;9.202;2023-02-28T19:35:20;13.37;;;7.37;;
9759;SDS011;4919;48.792;9.202;2023-02-28T19:38:05;12.30;;;7.67;;